createdAt,value
2023-01-22T00:04:27.478Z,3.63
2023-01-22T00:09:28.916Z,3.73
2023-01-22T00:14:30.329Z,3.80
2023-01-22T00:19:31.748Z,3.93
2023-01-22T00:24:33.153Z,4.10
2023-01-22T00:29:34.555Z,3.47
2023-01-22T00:34:35.961Z,3.80
2023-01-22T00:39:37.388Z,3.73
2023-01-22T00:44:38.814Z,3.77
2023-01-22T00:49:40.209Z,4.20
2023-01-22T00:54:41.646Z,3.90
2023-01-22T00:59:43.224Z,4.17
2023-01-22T01:04:44.620Z,4.63
2023-01-22T01:09:46.020Z,3.97
2023-01-22T01:14:47.441Z,3.80
2023-01-22T01:19:48.865Z,3.83
2023-01-22T01:24:50.276Z,4.27
2023-01-22T01:29:51.671Z,4.00
2023-01-22T01:34:53.065Z,3.67
2023-01-22T01:39:54.482Z,3.77
2023-01-22T01:44:55.872Z,4.10
2023-01-22T01:49:57.264Z,3.67
2023-01-22T01:54:58.697Z,4.27
2023-01-22T02:00:00.110Z,3.37
2023-01-22T02:05:01.600Z,3.23
2023-01-22T02:10:03.012Z,3.67
2023-01-22T02:15:04.418Z,3.37
2023-01-22T02:20:05.821Z,3.13
2023-01-22T02:25:07.224Z,3.33
2023-01-22T02:30:08.661Z,3.63
2023-01-22T02:35:10.058Z,3.27
2023-01-22T02:40:11.479Z,3.30
2023-01-22T02:45:12.922Z,3.30
2023-01-22T02:50:14.357Z,3.30
2023-01-22T02:55:15.789Z,3.50
2023-01-22T03:00:17.473Z,3.63
2023-01-22T03:05:19.089Z,3.93
2023-01-22T03:10:20.736Z,3.50
2023-01-22T03:15:22.314Z,3.00
2023-01-22T03:20:23.726Z,3.10
2023-01-22T03:25:25.141Z,3.70
2023-01-22T03:30:26.560Z,3.53
2023-01-22T03:35:27.970Z,2.93
2023-01-22T03:40:29.378Z,3.20
2023-01-22T03:45:30.824Z,2.90
2023-01-22T03:50:32.241Z,3.27
2023-01-22T03:55:33.626Z,2.77
2023-01-22T04:00:35.027Z,2.83
2023-01-22T04:05:36.436Z,3.00
2023-01-22T04:10:37.828Z,3.03
2023-01-22T04:15:39.259Z,2.77
2023-01-22T04:20:40.717Z,2.80
2023-01-22T04:25:42.128Z,2.70
2023-01-22T04:30:43.610Z,2.83
2023-01-22T04:35:45.097Z,3.10
2023-01-22T04:40:46.520Z,2.70
2023-01-22T04:45:47.987Z,2.90
2023-01-22T04:50:49.470Z,3.07
2023-01-22T04:55:50.916Z,2.80
2023-01-22T05:00:52.494Z,3.30
2023-01-22T05:05:53.887Z,2.60
2023-01-22T05:10:55.462Z,2.80
2023-01-22T05:15:56.935Z,2.60
2023-01-22T05:20:58.441Z,2.37
2023-01-22T05:25:59.836Z,2.43
2023-01-22T05:31:01.388Z,2.97
2023-01-22T05:36:02.818Z,2.70
2023-01-22T05:41:04.238Z,2.70
2023-01-22T05:46:05.685Z,2.27
2023-01-22T05:51:07.174Z,2.70
2023-01-22T05:56:08.594Z,1.90
2023-01-22T06:01:10.104Z,2.53
2023-01-22T06:06:11.547Z,2.70
2023-01-22T06:11:12.965Z,2.47
2023-01-22T06:16:14.435Z,2.03
2023-01-22T06:21:15.886Z,2.10
2023-01-22T06:26:17.277Z,1.90
2023-01-22T06:31:19.838Z,2.23
2023-01-22T06:36:21.295Z,2.37
2023-01-22T06:41:22.712Z,2.17
2023-01-22T06:46:24.159Z,2.30
2023-01-22T06:51:25.826Z,2.33
2023-01-22T06:56:27.257Z,2.60
2023-01-22T07:01:28.801Z,2.10
2023-01-22T07:06:30.456Z,2.07
2023-01-22T07:11:31.865Z,2.40
2023-01-22T07:16:33.313Z,2.50
2023-01-22T07:21:34.765Z,2.23
2023-01-22T07:26:36.178Z,2.33
2023-01-22T07:31:37.649Z,1.83
2023-01-22T07:36:39.052Z,1.83
2023-01-22T07:41:40.454Z,1.70
2023-01-22T07:46:41.923Z,2.40
2023-01-22T07:51:43.395Z,2.07
2023-01-22T07:56:45.168Z,1.93
2023-01-22T08:01:46.679Z,2.00
2023-01-22T08:06:48.116Z,1.90
2023-01-22T08:11:49.598Z,1.90
2023-01-22T08:16:51.068Z,2.00
2023-01-22T08:21:52.484Z,2.00
2023-01-22T08:26:53.978Z,1.80
2023-01-22T08:31:55.513Z,1.90
2023-01-22T08:36:56.965Z,1.80
2023-01-22T08:41:58.405Z,2.00
2023-01-22T08:46:59.822Z,1.83
2023-01-22T08:52:01.301Z,1.80
2023-01-22T08:57:02.725Z,2.17
2023-01-22T09:02:04.199Z,2.13
2023-01-22T09:07:05.711Z,2.13
2023-01-22T09:12:07.120Z,1.90
2023-01-22T09:17:08.523Z,1.70
2023-01-22T09:22:09.919Z,1.90
2023-01-22T09:27:11.326Z,1.87
2023-01-22T09:32:12.730Z,1.83
2023-01-22T09:37:14.128Z,1.80
2023-01-22T09:42:15.532Z,1.60
2023-01-22T09:47:16.955Z,1.60
2023-01-22T09:52:18.370Z,1.83
2023-01-22T09:57:31.135Z,1.87
2023-01-22T10:02:33.301Z,1.90
2023-01-22T10:07:34.713Z,2.20
2023-01-22T10:12:36.104Z,1.67
2023-01-22T10:17:37.504Z,1.50
2023-01-22T10:22:38.919Z,1.70
2023-01-22T10:27:40.343Z,1.80
2023-01-22T10:32:41.745Z,1.63
2023-01-22T10:37:43.156Z,1.60
2023-01-22T10:42:44.596Z,1.73
2023-01-22T10:47:46.046Z,2.10
2023-01-22T10:52:47.455Z,1.67
2023-01-22T10:57:48.880Z,1.90
2023-01-22T11:02:50.473Z,1.87
2023-01-22T11:07:51.937Z,1.80
2023-01-22T11:12:53.367Z,1.70
2023-01-22T11:17:54.796Z,1.37
2023-01-22T11:22:56.232Z,1.47
2023-01-22T11:27:57.635Z,1.80
2023-01-22T11:32:59.067Z,1.70
2023-01-22T11:38:00.462Z,1.70
2023-01-22T11:43:01.876Z,1.93
2023-01-22T11:48:03.383Z,2.27
2023-01-22T11:53:04.797Z,1.50
2023-01-22T11:58:06.206Z,1.53
2023-01-22T12:03:07.614Z,1.93
2023-01-22T12:08:09.038Z,1.60
2023-01-22T12:13:10.441Z,1.50
2023-01-22T12:18:11.856Z,1.70
2023-01-22T12:23:13.266Z,1.60
2023-01-22T12:28:14.783Z,1.63
2023-01-22T12:33:16.201Z,1.77
2023-01-22T12:38:17.624Z,1.73
2023-01-22T12:43:19.056Z,1.83
2023-01-22T12:48:20.483Z,1.90
2023-01-22T12:53:21.893Z,1.77
2023-01-22T12:58:23.339Z,1.40
2023-01-22T13:03:31.731Z,1.73
2023-01-22T13:08:33.836Z,1.90
2023-01-22T13:13:35.300Z,1.67
2023-01-22T13:18:36.709Z,1.80
2023-01-22T13:23:38.163Z,1.70
2023-01-22T13:28:39.563Z,2.13
2023-01-22T13:33:40.997Z,1.80
2023-01-22T13:38:42.424Z,2.10
2023-01-22T13:43:43.865Z,2.20
2023-01-22T13:48:45.313Z,1.87
2023-01-22T13:53:48.856Z,1.70
2023-01-22T13:58:51.541Z,2.70
2023-01-22T14:03:52.968Z,1.60
2023-01-22T14:08:54.382Z,1.80
2023-01-22T14:13:55.922Z,1.57
2023-01-22T14:18:57.312Z,1.40
2023-01-22T14:23:58.756Z,2.10
2023-01-22T14:29:00.238Z,1.80
2023-01-22T14:34:01.665Z,2.30
2023-01-22T14:39:04.629Z,1.90
2023-01-22T14:44:07.219Z,1.90
2023-01-22T14:49:08.616Z,2.17
2023-01-22T14:54:10.024Z,2.50
2023-01-22T14:59:11.425Z,2.47
2023-01-22T15:04:12.856Z,1.90
2023-01-22T15:09:14.259Z,2.57
2023-01-22T15:14:15.659Z,2.17
2023-01-22T15:19:18.475Z,2.57
2023-01-22T15:24:20.049Z,2.20
2023-01-22T15:29:21.448Z,1.90
2023-01-22T15:34:22.854Z,2.20
2023-01-22T15:39:24.371Z,2.17
2023-01-22T15:44:26.352Z,2.33
2023-01-22T15:49:27.830Z,2.07
2023-01-22T15:54:29.259Z,2.43
2023-01-22T15:59:30.659Z,2.80
2023-01-22T16:04:32.086Z,1.90
2023-01-22T16:09:33.535Z,2.50
2023-01-22T16:14:34.947Z,2.33
2023-01-22T16:19:36.365Z,2.10
2023-01-22T16:24:37.777Z,2.77
2023-01-22T16:29:39.204Z,2.43
2023-01-22T16:34:40.612Z,2.13
2023-01-22T16:39:42.020Z,2.00
2023-01-22T16:44:43.419Z,2.47
2023-01-22T16:49:44.847Z,2.40
2023-01-22T16:54:46.253Z,2.33
2023-01-22T16:59:47.677Z,2.80
2023-01-22T17:04:49.143Z,3.17
2023-01-22T17:09:50.824Z,3.23
2023-01-22T17:14:52.330Z,3.03
2023-01-22T17:19:53.756Z,2.70
2023-01-22T17:24:55.437Z,2.60
2023-01-22T17:29:56.857Z,3.00
2023-01-22T17:34:58.256Z,2.67
2023-01-22T17:39:59.733Z,2.73
2023-01-22T17:45:01.155Z,2.70
2023-01-22T17:50:02.553Z,2.90
2023-01-22T17:55:03.959Z,2.93
2023-01-22T18:00:05.390Z,3.13
2023-01-22T18:05:08.730Z,2.93
2023-01-22T18:10:10.877Z,2.60
2023-01-22T18:15:12.580Z,2.73
2023-01-22T18:20:13.985Z,3.13
2023-01-22T18:25:15.405Z,3.17
2023-01-22T18:30:16.842Z,2.83
2023-01-22T18:35:18.518Z,3.60
2023-01-22T18:40:20.052Z,3.37
2023-01-22T18:45:21.665Z,3.50
2023-01-22T18:50:23.121Z,3.07
2023-01-22T18:55:24.551Z,3.00
2023-01-22T19:00:25.992Z,3.47
2023-01-22T19:05:27.645Z,2.63
2023-01-22T19:10:29.031Z,3.00
2023-01-22T19:15:30.437Z,3.83
2023-01-22T19:20:31.836Z,3.27
2023-01-22T19:25:33.292Z,3.50
2023-01-22T19:30:34.711Z,3.33
2023-01-22T19:35:36.612Z,3.40
2023-01-22T19:40:38.009Z,3.07
2023-01-22T19:45:39.429Z,3.50
2023-01-22T19:50:41.659Z,3.20
2023-01-22T19:55:43.145Z,3.63
2023-01-22T20:00:44.615Z,3.57
2023-01-22T20:05:46.076Z,3.87
2023-01-22T20:10:47.489Z,3.40
2023-01-22T20:15:48.957Z,3.40
2023-01-22T20:20:50.361Z,3.27
2023-01-22T20:25:51.771Z,3.43
2023-01-22T20:30:53.687Z,3.40
2023-01-22T20:35:55.118Z,3.50
2023-01-22T20:40:56.522Z,2.80
2023-01-22T20:45:58.003Z,3.40
2023-01-22T20:50:59.733Z,3.20
2023-01-22T20:56:01.155Z,3.40
2023-01-22T21:01:02.642Z,3.60
2023-01-22T21:06:04.100Z,3.70
2023-01-22T21:11:05.510Z,3.67
2023-01-22T21:16:06.969Z,3.87
2023-01-22T21:21:08.368Z,3.50
2023-01-22T21:26:09.777Z,3.57
2023-01-22T21:31:11.277Z,3.63
2023-01-22T21:36:12.823Z,3.77
2023-01-22T21:41:14.219Z,3.40
2023-01-22T21:46:15.628Z,3.30
2023-01-22T21:51:17.079Z,3.20
2023-01-22T21:56:18.499Z,3.80
2023-01-22T22:01:19.937Z,3.50
2023-01-22T22:06:21.424Z,4.60
2023-01-22T22:11:22.874Z,5.00
2023-01-22T22:16:24.283Z,3.67
2023-01-22T22:21:25.681Z,4.37
2023-01-22T22:26:27.556Z,4.20
2023-01-22T22:31:29.121Z,4.03
2023-01-22T22:36:30.559Z,4.07
2023-01-22T22:41:32.742Z,3.70
2023-01-22T22:46:34.153Z,4.00
2023-01-22T22:51:35.563Z,3.60
2023-01-22T22:56:36.977Z,3.80
2023-01-22T23:01:38.384Z,3.63
2023-01-22T23:06:39.777Z,4.00
2023-01-22T23:11:41.194Z,4.00
2023-01-22T23:16:42.675Z,4.30
2023-01-22T23:21:44.263Z,3.60
2023-01-22T23:26:45.655Z,4.27
2023-01-22T23:31:47.114Z,4.10
2023-01-22T23:36:48.556Z,5.10
2023-01-22T23:41:49.987Z,4.60
2023-01-22T23:46:51.403Z,5.43
2023-01-22T23:51:52.808Z,4.00
2023-01-22T23:56:54.223Z,4.50
